Time;durP1;ratioP1;P1;durP2;ratioP2;P2;SDS_P1;SDS_P2;PMS_P1;PMS_P2;Temp;Humidity;BMP_temperature;BMP_pressure;BME280_temperature;BME280_humidity;BME280_pressure;Samples;Min_cycle;Max_cycle;Signal;HPM_P1;HPM_P2
2021/06/12 00:01:19;;;;;;;13.20;9.48;;;;;;;18.72;70.93;99252.78;3413768;28;19949;-69
2021/06/12 00:03:01;;;;;;;14.38;10.57;;;;;;;18.71;70.82;99242.22;3417576;28;20406;-69
2021/06/12 00:04:41;;;;;;;10.80;9.10;;;;;;;18.71;71.22;99244.94;3417442;28;20529;-69
2021/06/12 00:06:22;;;;;;;11.57;9.65;;;;;;;18.70;70.98;99246.00;3412178;28;20106;-70
2021/06/12 00:08:03;;;;;;;11.40;8.63;;;;;;;18.70;71.38;99246.00;3406637;29;20383;-69
2021/06/12 00:09:45;;;;;;;12.70;8.80;;;;;;;18.70;71.06;99244.13;3396793;29;20098;-70
2021/06/12 00:11:27;;;;;;;11.70;9.27;;;;;;;18.70;71.36;99248.72;3411666;28;20525;-70
2021/06/12 00:13:08;;;;;;;11.88;9.35;;;;;;;18.70;71.52;99243.31;3414762;28;20806;-70
2021/06/12 00:14:51;;;;;;;10.80;8.25;;;;;;;18.68;71.25;99242.75;3404103;29;20060;-70
2021/06/12 00:16:31;;;;;;;12.93;9.57;;;;;;;18.67;71.60;99243.84;3414882;28;20395;-70
2021/06/12 00:18:13;;;;;;;12.73;8.93;;;;;;;18.67;71.25;99244.66;3415810;28;20046;-70
2021/06/12 00:19:54;;;;;;;10.68;9.38;;;;;;;18.66;71.35;99247.59;3417307;28;20039;-70
2021/06/12 00:21:37;;;;;;;13.68;8.68;;;;;;;18.66;71.56;99240.31;3415385;28;20417;-70
2021/06/12 00:23:18;;;;;;;12.50;9.23;;;;;;;18.65;71.42;99237.88;3402506;29;20487;-69
2021/06/12 00:24:59;;;;;;;14.13;9.40;;;;;;;18.64;71.71;99237.06;3415270;28;20090;-70
2021/06/12 00:26:40;;;;;;;15.25;9.75;;;;;;;18.64;71.57;99233.53;3417309;28;20062;-70
2021/06/12 00:28:24;;;;;;;10.65;8.85;;;;;;;18.64;71.75;99236.22;3416554;28;20039;-71
2021/06/12 00:30:09;;;;;;;10.40;8.70;;;;;;;18.64;71.76;99233.53;3416664;28;20042;-70
2021/06/12 00:31:50;;;;;;;9.93;7.82;;;;;;;18.63;71.63;99223.81;3412100;28;20723;-69
2021/06/12 00:33:31;;;;;;;12.77;8.87;;;;;;;18.61;71.88;99216.00;3413965;28;20095;-69
2021/06/12 00:35:13;;;;;;;10.65;8.00;;;;;;;18.62;71.67;99225.72;3412967;28;20035;-69
2021/06/12 00:36:53;;;;;;;10.38;7.70;;;;;;;18.62;71.54;99220.31;3417011;28;20039;-69
2021/06/12 00:38:34;;;;;;;12.93;7.22;;;;;;;18.64;71.88;99228.97;3417911;28;20050;-71
2021/06/12 00:40:17;;;;;;;10.17;7.27;;;;;;;18.64;71.94;99223.56;3415100;28;20039;-69
2021/06/12 00:41:58;;;;;;;16.63;7.82;;;;;;;18.62;71.47;99214.09;3417484;28;20107;-71
2021/06/12 00:43:41;;;;;;;10.27;8.60;;;;;;;18.63;71.82;99221.13;3417704;28;20517;-70
2021/06/12 00:45:24;;;;;;;8.73;6.53;;;;;;;18.63;71.78;99218.41;3416397;28;20054;-70
2021/06/12 00:47:05;;;;;;;8.48;7.05;;;;;;;18.62;71.59;99220.31;3417178;28;20050;-70
2021/06/12 00:48:47;;;;;;;9.03;7.67;;;;;;;18.62;71.75;99212.22;3415087;28;20039;-72
2021/06/12 00:50:30;;;;;;;9.65;7.72;;;;;;;18.59;71.97;99215.44;3416815;28;20054;-69
2021/06/12 00:52:11;;;;;;;8.65;7.47;;;;;;;18.60;71.67;99210.84;3415942;28;20067;-70
2021/06/12 00:53:52;;;;;;;10.43;7.07;;;;;;;18.59;71.67;99212.72;3406958;29;20050;-69
2021/06/12 00:55:33;;;;;;;11.45;7.45;;;;;;;18.59;71.67;99218.13;3413154;28;20514;-70
2021/06/12 00:57:14;;;;;;;11.73;7.72;;;;;;;18.58;71.87;99212.97;3401056;29;20035;-69
2021/06/12 00:58:55;;;;;;;9.52;7.57;;;;;;;18.55;71.92;99214.31;3406943;29;20044;-70
2021/06/12 01:00:36;;;;;;;8.98;6.90;;;;;;;18.57;71.81;99214.88;3413132;28;20126;-70
2021/06/12 01:02:19;;;;;;;9.75;8.00;;;;;;;18.55;71.92;99219.72;3416821;28;20031;-70
2021/06/12 01:03:59;;;;;;;15.07;9.30;;;;;;;18.56;71.78;99215.97;3415796;28;20217;-69
2021/06/12 01:05:41;;;;;;;9.43;8.43;;;;;;;18.55;71.78;99217.00;3402118;29;20142;-69
2021/06/12 01:07:22;;;;;;;13.15;9.07;;;;;;;18.53;71.87;99209.19;3400031;29;20426;-69
2021/06/12 01:09:03;;;;;;;13.20;8.20;;;;;;;18.53;71.99;99219.16;3413399;28;20036;-69
2021/06/12 01:10:47;;;;;;;10.80;8.77;;;;;;;18.55;71.75;99229.69;3415996;28;20091;-69
2021/06/12 01:12:56;;;;;;;10.40;7.67;;;;;;;18.56;71.69;99226.75;3416279;28;20074;-69
2021/06/12 01:14:42;;;;;;;10.88;8.13;;;;;;;18.56;71.67;99225.91;3414092;28;20525;-69
2021/06/12 01:16:34;;;;;;;13.35;8.32;;;;;;;18.57;71.81;99228.38;3388601;29;20044;-70
2021/06/12 01:18:19;;;;;;;12.07;8.48;;;;;;;18.55;71.63;99222.41;3402391;29;20054;-69
2021/06/12 01:20:06;;;;;;;9.38;8.40;;;;;;;18.56;71.66;99226.75;3396613;29;20039;-69
2021/06/12 01:21:49;;;;;;;10.38;7.93;;;;;;;18.55;71.76;99225.09;3402327;29;20091;-69
2021/06/12 01:23:42;;;;;;;;;;;;;;;18.62;71.77;99222.19;3415142;29;20043;-71
2021/06/12 01:25:39;;;;;;;10.75;7.60;;;;;;;18.56;71.77;99223.22;3414805;29;20271;-69
2021/06/12 01:27:49;;;;;;;11.63;8.07;;;;;;;18.57;71.98;99214.06;3402522;29;20047;-69
2021/06/12 01:29:50;;;;;;;13.48;7.82;;;;;;;18.56;71.92;99218.66;3403128;29;20052;-71
2021/06/12 01:31:32;;;;;;;11.77;8.18;;;;;;;18.52;72.01;99215.63;3403813;29;20035;-70
2021/06/12 01:33:13;;;;;;;8.68;7.75;;;;;;;18.52;71.90;99220.22;3402921;29;20050;-69
2021/06/12 01:34:56;;;;;;;11.13;7.73;;;;;;;18.51;71.56;99210.53;3403202;29;20040;-71
2021/06/12 01:36:36;;;;;;;10.32;7.55;;;;;;;18.51;71.62;99213.22;3402499;29;20300;-69
2021/06/12 01:38:24;;;;;;;12.33;8.47;;;;;;;18.53;72.24;99211.06;3389053;29;20040;-69
2021/06/12 01:40:07;;;;;;;9.65;7.43;;;;;;;18.52;71.70;99212.13;3389272;29;20051;-69
2021/06/12 01:41:50;;;;;;;11.15;8.32;;;;;;;18.52;72.07;99210.25;3363203;29;20053;-69
2021/06/12 01:43:31;;;;;;;10.68;8.23;;;;;;;18.53;71.62;99209.19;3391983;29;20458;-70
2021/06/12 01:45:12;;;;;;;8.30;7.07;;;;;;;18.52;71.75;99204.03;3401905;29;20040;-71
2021/06/12 01:46:54;;;;;;;8.20;7.20;;;;;;;18.55;71.62;99208.09;3398086;29;20590;-71
2021/06/12 01:48:35;;;;;;;8.63;7.72;;;;;;;18.56;71.92;99205.16;3387920;29;20093;-70
2021/06/12 01:50:17;;;;;;;12.43;8.00;;;;;;;18.55;71.86;99208.91;3399432;29;20533;-69
2021/06/12 01:51:59;;;;;;;10.30;8.40;;;;;;;18.56;71.94;99213.25;3385982;29;20507;-70
2021/06/12 01:53:42;;;;;;;10.23;7.65;;;;;;;18.57;72.00;99211.38;3388619;29;20047;-70
2021/06/12 01:55:28;;;;;;;10.88;8.07;;;;;;;18.58;71.79;99208.41;3389289;29;20521;-69
2021/06/12 01:57:09;;;;;;;9.68;8.27;;;;;;;18.58;71.95;99212.97;3398140;29;20134;-70
2021/06/12 01:58:50;;;;;;;12.43;7.60;;;;;;;18.59;71.70;99218.13;3385933;29;20506;-70
2021/06/12 02:00:31;;;;;;;10.77;7.60;;;;;;;18.59;71.74;99220.84;3386338;29;20515;-70
2021/06/12 02:02:12;;;;;;;10.55;7.45;;;;;;;18.59;71.69;99214.63;3399289;29;20047;-70
2021/06/12 02:03:54;;;;;;;9.77;8.75;;;;;;;18.59;72.01;99210.03;3389654;29;20468;-71
2021/06/12 02:05:35;;;;;;;11.80;8.60;;;;;;;18.58;72.24;99212.97;3401941;29;20506;-71
2021/06/12 02:07:17;;;;;;;10.27;7.43;;;;;;;18.60;72.03;99205.44;3402170;29;20521;-71
2021/06/12 02:08:58;;;;;;;9.00;7.50;;;;;;;18.59;71.74;99210.03;3402244;29;20036;-71
2021/06/12 02:10:39;;;;;;;11.98;8.32;;;;;;;18.62;71.78;99208.72;3401744;29;20039;-69
2021/06/12 02:12:20;;;;;;;12.75;8.98;;;;;;;18.62;71.96;99206.81;3386736;29;20048;-70
2021/06/12 02:14:01;;;;;;;10.10;8.02;;;;;;;18.59;71.62;99201.94;3386120;29;20126;-70
2021/06/12 02:15:44;;;;;;;11.43;7.53;;;;;;;18.59;71.75;99204.63;3398241;29;20407;-71
2021/06/12 02:17:28;;;;;;;11.68;8.35;;;;;;;18.61;71.65;99194.41;3385057;29;20067;-70
2021/06/12 02:19:09;;;;;;;13.63;8.40;;;;;;;18.63;72.03;99205.72;3382238;29;20047;-71
2021/06/12 02:20:51;;;;;;;12.45;8.80;;;;;;;18.64;71.71;99201.97;3376117;29;20040;-70
2021/06/12 02:22:33;;;;;;;14.20;8.65;;;;;;;18.65;71.80;99206.28;3390362;29;20048;-70
2021/06/12 02:24:14;;;;;;;12.23;8.73;;;;;;;18.63;71.68;99199.53;3376626;29;20563;-70
2021/06/12 02:25:54;;;;;;;11.48;9.30;;;;;;;18.64;71.66;99201.97;3390138;29;20139;-71
2021/06/12 02:27:37;;;;;;;14.02;9.45;;;;;;;18.63;72.07;99197.63;3401972;29;20054;-70
2021/06/12 02:29:18;;;;;;;13.23;9.18;;;;;;;18.65;71.86;99202.78;3388446;29;20151;-70
2021/06/12 02:31:09;;;;;;;10.02;8.07;;;;;;;18.67;71.86;99196.06;3385290;29;20154;-69
2021/06/12 02:32:53;;;;;;;9.85;8.60;;;;;;;18.69;72.05;99196.63;3373764;29;20075;-70
2021/06/12 02:34:36;;;;;;;14.20;9.07;;;;;;;18.69;71.61;99199.31;3383554;29;20527;-70
2021/06/12 02:36:17;;;;;;;12.38;7.93;;;;;;;18.71;72.09;99193.63;3400261;29;20040;-70
2021/06/12 02:37:58;;;;;;;10.80;8.33;;;;;;;18.73;71.81;99197.69;3380747;29;20047;-69
2021/06/12 02:39:39;;;;;;;12.67;8.03;;;;;;;18.76;71.93;99201.00;3397943;29;20051;-69
2021/06/12 02:41:22;;;;;;;11.77;8.67;;;;;;;18.76;72.08;99199.09;3380959;29;21046;-70
2021/06/12 02:43:03;;;;;;;9.00;7.85;;;;;;;18.74;71.64;99193.94;3387792;29;20040;-70
2021/06/12 02:44:44;;;;;;;11.70;8.43;;;;;;;18.79;71.53;99200.47;3402538;29;20122;-69
2021/06/12 02:46:28;;;;;;;13.43;8.98;;;;;;;18.80;71.61;99210.22;3401848;29;20687;-71
2021/06/12 02:48:13;;;;;;;11.10;8.38;;;;;;;18.82;71.51;99210.75;3384234;29;20640;-71
2021/06/12 02:49:58;;;;;;;13.25;8.93;;;;;;;18.81;71.63;99206.44;3391449;29;20484;-70
2021/06/12 02:51:41;;;;;;;13.00;8.98;;;;;;;18.83;71.69;99209.69;3387720;29;20044;-70
2021/06/12 02:53:25;;;;;;;11.50;8.35;;;;;;;18.85;71.56;99210.25;3387492;29;20146;-70
2021/06/12 02:55:08;;;;;;;12.88;9.00;;;;;;;18.85;72.01;99204.84;3399222;29;20046;-70
2021/06/12 02:56:50;;;;;;;12.75;9.55;;;;;;;18.85;71.74;99211.06;3401557;29;20079;-70
2021/06/12 02:58:34;;;;;;;;;;;;;;;18.91;71.54;99212.69;3374666;29;20044;-70
2021/06/12 03:00:17;;;;;;;9.93;7.95;;;;;;;18.87;71.82;99210.78;3396282;29;20410;-70
2021/06/12 03:02:00;;;;;;;10.60;9.05;;;;;;;18.87;71.62;99216.16;3402115;29;20044;-70
2021/06/12 03:03:41;;;;;;;11.85;8.75;;;;;;;18.86;71.74;99215.38;3387256;29;20216;-70
2021/06/12 03:05:25;;;;;;;12.90;9.45;;;;;;;18.86;71.90;99215.38;3385207;29;20051;-70
2021/06/12 03:07:08;;;;;;;14.05;10.38;;;;;;;18.85;71.58;99213.75;3399352;29;20051;-70
2021/06/12 03:08:51;;;;;;;14.57;10.10;;;;;;;18.85;71.88;99215.63;3388459;29;20047;-69
2021/06/12 03:10:33;;;;;;;17.00;11.07;;;;;;;18.87;71.80;99216.16;3398165;29;20138;-70
2021/06/12 03:12:15;;;;;;;15.75;11.82;;;;;;;18.86;71.78;99211.84;3387500;29;20046;-70
2021/06/12 03:13:56;;;;;;;;;;;;;;;18.92;71.57;99213.50;3385549;29;20040;-71
2021/06/12 03:15:37;;;;;;;15.98;12.00;;;;;;;18.86;71.43;99214.56;3406301;29;19926;-70
2021/06/12 03:17:18;;;;;;;20.77;12.98;;;;;;;18.86;71.72;99209.97;3400295;29;20078;-72
2021/06/12 03:19:00;;;;;;;14.18;11.85;;;;;;;18.86;71.66;99209.16;3411961;28;20081;-71
2021/06/12 03:20:42;;;;;;;17.50;12.13;;;;;;;18.85;71.53;99212.94;3399538;29;20055;-71
2021/06/12 03:22:22;;;;;;;19.58;13.07;;;;;;;18.88;71.60;99215.13;3412198;29;20031;-70
2021/06/12 03:24:05;;;;;;;16.33;12.57;;;;;;;18.88;71.62;99215.13;3414867;29;20570;-72
2021/06/12 03:25:46;;;;;;;17.70;12.82;;;;;;;18.88;71.46;99207.00;3415125;29;20050;-71
2021/06/12 03:27:27;;;;;;;15.40;13.10;;;;;;;18.90;71.92;99204.88;3414197;29;20047;-71
2021/06/12 03:29:13;;;;;;;16.98;12.30;;;;;;;18.90;71.49;99207.56;3424160;28;20039;-71
2021/06/12 03:30:53;;;;;;;21.48;13.57;;;;;;;18.91;71.70;99207.28;3414267;29;20418;-70
2021/06/12 03:32:35;;;;;;;15.10;12.23;;;;;;;18.92;71.39;99205.41;3415171;29;20043;-71
2021/06/12 03:34:16;;;;;;;17.50;12.90;;;;;;;18.92;71.54;99194.59;3413777;28;20039;-70
2021/06/12 03:35:57;;;;;;;21.40;13.23;;;;;;;18.94;71.60;99205.97;3414879;29;20043;-70
2021/06/12 03:37:40;;;;;;;18.83;13.70;;;;;;;18.94;71.32;99201.38;3414517;29;20043;-71
2021/06/12 03:39:20;;;;;;;17.48;12.82;;;;;;;18.98;71.21;99203.56;3416395;28;20042;-71
2021/06/12 03:41:04;;;;;;;17.90;12.67;;;;;;;18.99;71.17;99207.88;3398421;29;20065;-71
2021/06/12 03:42:45;;;;;;;24.95;14.45;;;;;;;18.99;71.72;99208.69;3412125;29;20380;-70
2021/06/12 03:44:26;;;;;;;20.95;13.82;;;;;;;18.99;71.45;99206.00;3414197;29;20045;-71
2021/06/12 03:46:07;;;;;;;16.83;13.73;;;;;;;19.01;71.36;99209.25;3399978;29;20046;-70
2021/06/12 03:47:49;;;;;;;23.83;15.65;;;;;;;19.02;71.54;99201.94;3397730;29;20039;-70
2021/06/12 03:49:30;;;;;;;20.63;15.52;;;;;;;19.02;71.62;99191.16;3400104;29;20046;-70
2021/06/12 03:51:16;;;;;;;24.83;16.03;;;;;;;19.02;71.28;99196.56;3396826;29;20044;-69
2021/06/12 03:52:57;;;;;;;25.35;15.57;;;;;;;19.02;71.24;99191.97;3412237;29;20129;-71
2021/06/12 03:54:38;;;;;;;20.27;15.03;;;;;;;19.04;71.09;99194.41;3399930;29;20636;-71
2021/06/12 03:56:21;;;;;;;20.67;15.80;;;;;;;19.04;71.37;99195.22;3399076;29;20036;-71
2021/06/12 03:58:02;;;;;;;23.95;17.23;;;;;;;19.05;71.11;99194.16;3401281;28;20103;-71
2021/06/12 03:59:44;;;;;;;23.30;16.92;;;;;;;19.01;71.57;99195.75;3428171;28;20043;-71
2021/06/12 04:01:24;;;;;;;24.10;18.05;;;;;;;19.02;71.35;99191.97;3403831;29;20138;-72
2021/06/12 04:03:05;;;;;;;26.55;17.48;;;;;;;19.03;71.53;99188.19;3397919;29;20200;-71
2021/06/12 04:04:48;;;;;;;25.03;17.37;;;;;;;18.99;71.61;99187.09;3411190;28;20054;-71
2021/06/12 04:06:28;;;;;;;23.45;16.95;;;;;;;19.02;71.58;99199.25;3412773;28;20051;-72
2021/06/12 04:08:10;;;;;;;24.37;16.10;;;;;;;19.00;71.31;99196.00;3414653;29;20047;-71
2021/06/12 04:09:51;;;;;;;23.95;16.83;;;;;;;19.02;71.50;99197.34;3400459;29;20534;-71
2021/06/12 04:11:31;;;;;;;21.48;15.02;;;;;;;19.04;71.29;99199.81;3411385;28;20039;-72
2021/06/12 04:13:12;;;;;;;24.80;17.07;;;;;;;19.03;71.52;99190.09;3414901;29;20450;-69
2021/06/12 04:14:53;;;;;;;26.35;16.92;;;;;;;19.04;71.52;99189.00;3412605;29;20451;-71
2021/06/12 04:16:35;;;;;;;24.30;16.73;;;;;;;19.03;71.36;99193.59;3393659;29;20591;-73
2021/06/12 04:18:16;;;;;;;21.63;16.90;;;;;;;19.04;71.48;99184.41;3415099;28;20393;-70
2021/06/12 04:19:58;;;;;;;22.48;16.70;;;;;;;19.04;71.30;99189.81;3427706;28;20290;-71
2021/06/12 04:21:38;;;;;;;;;;;;;;;19.11;71.31;99185.00;3417157;28;20043;-70
2021/06/12 04:23:19;;;;;;;25.30;15.27;;;;;;;19.07;71.37;99186.56;3414778;29;19923;-70
2021/06/12 04:24:59;;;;;;;24.73;16.55;;;;;;;19.05;71.37;99191.47;3398990;29;20040;-70
2021/06/12 04:26:40;;;;;;;25.20;16.67;;;;;;;19.08;71.27;99184.72;3410845;29;20444;-70
2021/06/12 04:28:21;;;;;;;21.48;15.77;;;;;;;19.08;71.56;99188.22;3414674;28;20514;-70
2021/06/12 04:30:03;;;;;;;21.75;16.30;;;;;;;19.09;71.13;99189.84;3414092;29;20390;-70
2021/06/12 04:31:43;;;;;;;;;;;;;;;19.15;71.29;99186.09;3414638;29;20617;-71
2021/06/12 04:33:24;;;;;;;24.35;16.42;;;;;;;19.11;71.01;99187.69;3398269;29;20002;-70
2021/06/12 04:35:05;;;;;;;30.27;18.25;;;;;;;19.11;71.33;99189.59;3401304;29;20083;-70
2021/06/12 04:36:46;;;;;;;22.52;16.20;;;;;;;19.10;71.36;99186.06;3410881;29;20043;-69
2021/06/12 04:38:27;;;;;;;21.38;16.45;;;;;;;19.11;71.47;99193.09;3413917;29;20082;-70
2021/06/12 04:40:09;;;;;;;26.23;17.40;;;;;;;19.10;71.17;99194.19;3400498;29;20460;-69
2021/06/12 04:41:50;;;;;;;24.13;17.75;;;;;;;19.10;71.44;99193.34;3410295;29;20082;-69
2021/06/12 04:43:30;;;;;;;23.47;17.67;;;;;;;19.11;71.13;99189.59;3413726;28;20075;-70
2021/06/12 04:45:11;;;;;;;21.27;15.87;;;;;;;19.09;71.32;99189.84;3414242;28;20141;-70
2021/06/12 04:46:52;;;;;;;23.92;17.38;;;;;;;19.09;71.28;99189.84;3416258;28;20144;-69
2021/06/12 04:48:33;;;;;;;22.80;16.88;;;;;;;19.09;71.17;99187.13;3415895;28;20047;-70
2021/06/12 04:50:14;;;;;;;22.10;17.33;;;;;;;19.09;71.41;99181.72;3416362;29;20050;-70
2021/06/12 04:51:55;;;;;;;25.58;17.83;;;;;;;19.12;71.07;99181.19;3416801;29;20051;-72
2021/06/12 04:53:36;;;;;;;21.23;17.15;;;;;;;19.15;71.49;99191.50;3416579;28;20528;-72
2021/06/12 04:55:16;;;;;;;24.40;16.83;;;;;;;19.17;71.03;99183.94;3416931;29;20039;-72
2021/06/12 04:56:57;;;;;;;26.73;17.57;;;;;;;19.20;71.40;99184.47;3416197;29;20070;-71
2021/06/12 04:58:38;;;;;;;24.90;17.23;;;;;;;19.24;71.13;99188.28;3416321;29;20146;-70
2021/06/12 05:00:19;;;;;;;23.10;16.13;;;;;;;19.25;71.13;99184.50;3416114;29;20047;-70
2021/06/12 05:02:00;;;;;;;22.80;16.65;;;;;;;19.27;70.88;99187.75;3416999;29;20126;-70
2021/06/12 05:03:40;;;;;;;24.23;17.92;;;;;;;19.29;70.92;99181.03;3421141;28;20046;-70
2021/06/12 05:05:21;;;;;;;25.40;17.08;;;;;;;19.30;70.94;99188.03;3416375;29;20046;-70
2021/06/12 05:07:02;;;;;;;24.45;17.60;;;;;;;19.32;70.97;99185.88;3415849;29;20581;-71
2021/06/12 05:08:43;;;;;;;25.65;17.13;;;;;;;19.32;70.54;99180.47;3416622;29;20039;-70
2021/06/12 05:10:24;;;;;;;22.75;18.13;;;;;;;19.32;70.63;99183.19;3416404;29;20047;-71
2021/06/12 05:12:05;;;;;;;24.23;17.10;;;;;;;19.35;70.84;99179.16;3416126;29;20418;-70
2021/06/12 05:13:46;;;;;;;25.88;18.42;;;;;;;19.35;70.81;99174.53;3415807;28;20467;-70
2021/06/12 05:15:29;;;;;;;21.55;17.65;;;;;;;19.38;70.83;99174.00;3409378;29;20055;-70
2021/06/12 05:17:12;;;;;;;24.05;18.20;;;;;;;19.41;70.78;99169.97;3402091;29;20051;-70
2021/06/12 05:18:53;;;;;;;25.02;19.08;;;;;;;19.44;70.40;99165.91;3402990;29;20040;-70
2021/06/12 05:20:35;;;;;;;25.23;19.30;;;;;;;19.47;70.68;99171.63;3403046;29;20511;-70
2021/06/12 05:22:21;;;;;;;23.38;17.33;;;;;;;19.49;70.69;99168.63;3404008;29;20044;-70
2021/06/12 05:24:01;;;;;;;26.25;18.67;;;;;;;19.52;70.53;99170.84;3403742;29;20063;-71
2021/06/12 05:25:43;;;;;;;23.98;16.85;;;;;;;19.52;70.70;99163.53;3390197;29;20083;-71
2021/06/12 05:27:24;;;;;;;23.90;16.50;;;;;;;19.57;70.32;99166.25;3387618;29;20052;-70
2021/06/12 05:29:05;;;;;;;20.30;17.27;;;;;;;19.61;70.22;99164.63;3403243;29;20492;-70
2021/06/12 05:30:46;;;;;;;26.10;19.10;;;;;;;19.64;70.21;99159.75;3416452;29;20039;-70
2021/06/12 05:32:27;;;;;;;27.40;17.60;;;;;;;19.66;70.29;99163.81;3415754;29;20039;-70
2021/06/12 05:34:07;;;;;;;22.43;17.67;;;;;;;19.68;70.21;99166.31;3415558;29;20067;-70
2021/06/12 05:35:49;;;;;;;25.13;19.53;;;;;;;19.63;70.07;99148.13;3382502;29;20047;-70
2021/06/12 05:37:30;;;;;;;27.08;21.45;;;;;;;19.70;69.89;99161.44;3391868;29;20047;-70
2021/06/12 05:39:11;;;;;;;27.92;18.40;;;;;;;19.72;69.91;99159.25;3388716;29;20043;-70
2021/06/12 05:40:54;;;;;;;24.88;20.00;;;;;;;19.75;69.76;99156.84;3373518;29;20099;-71
2021/06/12 05:42:35;;;;;;;;;;;;;;;19.83;69.65;99159.03;3384495;29;20525;-70
2021/06/12 05:44:15;;;;;;;23.30;17.67;;;;;;;19.82;69.86;99156.56;3384457;29;19922;-70
2021/06/12 05:45:56;;;;;;;25.02;18.70;;;;;;;19.84;69.46;99159.84;3399161;29;20471;-70
2021/06/12 05:47:37;;;;;;;24.00;18.08;;;;;;;19.88;69.63;99160.09;3389866;29;20048;-70
2021/06/12 05:49:19;;;;;;;25.93;17.60;;;;;;;19.90;69.66;99158.75;3400390;29;20407;-71
2021/06/12 05:51:00;;;;;;;26.95;18.83;;;;;;;19.96;69.66;99156.88;3402520;29;20521;-70
2021/06/12 05:52:40;;;;;;;29.63;19.83;;;;;;;19.93;69.65;99152.00;3388538;29;20074;-71
2021/06/12 05:54:21;;;;;;;25.50;19.40;;;;;;;20.00;69.22;99153.34;3407510;29;20062;-69
2021/06/12 05:56:02;;;;;;;26.00;20.50;;;;;;;20.03;69.27;99152.84;3410037;29;20066;-70
2021/06/12 05:57:43;;;;;;;24.87;19.83;;;;;;;20.07;69.40;99153.09;3402748;29;20062;-70
2021/06/12 05:59:23;;;;;;;28.60;20.13;;;;;;;20.10;69.21;99149.03;3402344;29;20419;-71
2021/06/12 06:01:06;;;;;;;26.60;19.87;;;;;;;20.14;68.93;99150.94;3401688;29;20498;-71
2021/06/12 06:02:47;;;;;;;26.38;18.80;;;;;;;20.19;69.14;99145.53;3411371;29;20039;-70
2021/06/12 06:04:27;;;;;;;27.17;19.57;;;;;;;20.26;69.13;99148.78;3399632;29;20039;-70
2021/06/12 06:06:08;;;;;;;30.80;20.70;;;;;;;20.32;68.88;99146.06;3383122;29;20047;-71
2021/06/12 06:07:49;;;;;;;30.75;20.02;;;;;;;20.39;68.72;99141.16;3371928;29;20061;-70
2021/06/12 06:09:30;;;;;;;27.13;20.07;;;;;;;20.45;68.57;99146.31;3393248;29;20396;-70
2021/06/12 06:11:10;;;;;;;28.97;19.83;;;;;;;20.52;68.40;99139.78;3402369;29;20098;-70
2021/06/12 06:12:51;;;;;;;29.73;21.17;;;;;;;20.56;68.32;99146.31;3402662;29;20050;-70
2021/06/12 06:14:32;;;;;;;28.30;20.23;;;;;;;20.60;68.16;99136.56;3401240;29;20498;-70
2021/06/12 06:16:13;;;;;;;31.47;19.37;;;;;;;20.65;68.18;99140.09;3416263;28;20090;-71
2021/06/12 06:17:54;;;;;;;26.67;19.23;;;;;;;20.67;67.98;99135.19;3428218;28;20030;-71
2021/06/12 06:19:34;;;;;;;30.40;21.77;;;;;;;20.74;68.04;99139.53;3415669;29;20039;-72
2021/06/12 06:21:18;;;;;;;25.37;19.57;;;;;;;20.79;67.45;99132.19;3412220;29;20099;-73
2021/06/12 06:22:58;;;;;;;20.27;16.80;;;;;;;20.85;67.76;99130.28;3401490;29;20047;-71
2021/06/12 06:24:39;;;;;;;28.00;18.90;;;;;;;20.89;67.67;99128.63;3411475;29;20043;-71
2021/06/12 06:26:20;;;;;;;27.83;20.03;;;;;;;20.91;67.41;99129.19;3409036;29;20411;-71
2021/06/12 06:28:01;;;;;;;24.50;18.80;;;;;;;20.92;67.46;99131.59;3415561;29;20462;-71
2021/06/12 06:29:42;;;;;;;26.53;19.77;;;;;;;20.94;67.23;99134.03;3411226;29;20100;-70
2021/06/12 06:31:22;;;;;;;26.03;18.50;;;;;;;20.95;67.21;99130.22;3412470;28;20623;-71
2021/06/12 06:33:03;;;;;;;26.70;18.47;;;;;;;20.96;67.03;99125.63;3412288;29;20043;-70
2021/06/12 06:34:44;;;;;;;24.30;18.77;;;;;;;20.96;67.12;99126.47;3408091;29;20040;-71
2021/06/12 06:36:25;;;;;;;27.97;20.97;;;;;;;20.97;66.99;99129.97;3415868;28;20514;-71
2021/06/12 06:38:06;;;;;;;28.77;22.27;;;;;;;20.95;66.92;99129.44;3428897;28;20085;-71
2021/06/12 06:39:46;;;;;;;27.63;19.30;;;;;;;20.95;66.81;99127.53;3414771;28;20126;-70
2021/06/12 06:41:27;;;;;;;28.67;20.83;;;;;;;20.94;66.74;99125.13;3423221;28;20039;-72
2021/06/12 06:43:11;;;;;;;42.63;32.08;;;;;;;20.95;66.93;99124.00;3418454;28;20035;-71
2021/06/12 06:44:52;;;;;;;88.22;64.68;;;;;;;20.95;66.86;99122.09;3414522;29;20054;-71
2021/06/12 06:46:33;;;;;;;85.90;54.73;;;;;;;20.99;67.05;99116.94;3414402;28;20138;-70
2021/06/12 06:48:15;;;;;;;61.27;40.87;;;;;;;21.02;66.98;99119.13;3415682;29;20050;-71
2021/06/12 06:49:59;;;;;;;47.88;30.17;;;;;;;21.05;66.71;99118.56;3402125;29;20064;-71
2021/06/12 06:51:40;;;;;;;38.93;27.27;;;;;;;21.08;66.66;99118.78;3411994;29;20035;-71
2021/06/12 06:53:20;;;;;;;37.27;25.37;;;;;;;21.09;66.57;99120.44;3401374;29;20072;-70
2021/06/12 06:55:01;;;;;;;37.33;24.50;;;;;;;21.09;66.79;99115.03;3412463;29;20050;-71
2021/06/12 06:56:43;;;;;;;30.70;22.23;;;;;;;21.11;66.65;99128.28;3415165;29;20553;-70
2021/06/12 06:58:23;;;;;;;32.97;23.90;;;;;;;21.13;66.25;99123.38;3412893;29;21137;-71
2021/06/12 07:00:05;;;;;;;30.33;21.90;;;;;;;21.15;66.48;99129.34;3414833;28;20047;-70
2021/06/12 07:01:46;;;;;;;27.63;21.33;;;;;;;21.18;66.01;99127.97;3421809;28;20145;-71
2021/06/12 07:03:27;;;;;;;24.87;20.90;;;;;;;21.22;66.11;99123.59;3426303;28;20042;-71
2021/06/12 07:05:08;;;;;;;28.00;20.70;;;;;;;21.23;66.19;99131.47;3420791;28;20869;-71
2021/06/12 07:06:49;;;;;;;29.13;20.42;;;;;;;21.22;65.88;99121.72;3414130;29;20050;-70
2021/06/12 07:08:30;;;;;;;27.30;21.93;;;;;;;21.24;66.03;99116.81;3406404;28;20079;-72
2021/06/12 07:10:11;;;;;;;27.03;20.60;;;;;;;21.21;65.85;99120.09;3422912;28;20105;-70
2021/06/12 07:11:52;;;;;;;28.23;21.60;;;;;;;21.21;66.06;99122.81;3421449;28;20039;-71
2021/06/12 07:13:34;;;;;;;24.13;19.53;;;;;;;21.15;66.06;99110.38;3417425;28;20407;-73
2021/06/12 07:15:16;;;;;;;29.08;20.95;;;;;;;21.18;65.78;99114.44;3415934;28;20051;-70
2021/06/12 07:16:57;;;;;;;29.85;21.70;;;;;;;21.19;65.99;99107.91;3414489;29;20059;-71
2021/06/12 07:18:38;;;;;;;25.95;19.85;;;;;;;21.22;65.91;99110.91;3411905;29;20039;-71
2021/06/12 07:20:19;;;;;;;28.63;20.60;;;;;;;21.25;65.72;99110.31;3420401;28;20415;-72
2021/06/12 07:22:00;;;;;;;32.15;20.88;;;;;;;21.32;65.98;99112.72;3413990;29;20049;-71
2021/06/12 07:23:41;;;;;;;31.07;21.43;;;;;;;21.34;65.82;99110.53;3415022;29;20047;-71
2021/06/12 07:25:22;;;;;;;27.20;18.60;;;;;;;21.39;65.85;99107.84;3396702;29;20074;-69
2021/06/12 07:27:03;;;;;;;28.00;19.20;;;;;;;21.42;65.62;99112.69;3401471;29;20426;-71
2021/06/12 07:28:44;;;;;;;26.92;19.10;;;;;;;21.43;65.75;99105.38;3414163;29;20043;-70
2021/06/12 07:30:25;;;;;;;27.40;21.55;;;;;;;21.45;65.84;99114.88;3411617;29;20097;-71
2021/06/12 07:32:06;;;;;;;31.83;22.00;;;;;;;21.44;65.59;99115.94;3423099;28;20951;-73
2021/06/12 07:33:47;;;;;;;71.78;47.50;;;;;;;21.40;65.70;99114.91;3427681;28;20580;-73
2021/06/12 07:35:28;;;;;;;64.03;43.37;;;;;;;21.38;65.71;99110.81;3418349;28;20039;-71
2021/06/12 07:37:09;;;;;;;43.57;33.57;;;;;;;21.38;65.54;99110.81;3414225;28;20047;-71
2021/06/12 07:38:50;;;;;;;34.50;25.60;;;;;;;21.41;65.50;99111.09;3414945;29;20136;-70
2021/06/12 07:40:32;;;;;;;28.77;21.83;;;;;;;21.45;65.18;99116.75;3413733;28;20078;-70
2021/06/12 07:42:12;;;;;;;24.73;19.70;;;;;;;21.56;64.95;99118.31;3414240;29;20047;-70
2021/06/12 07:43:54;;;;;;;22.17;17.00;;;;;;;21.76;64.65;99106.50;3420603;28;20035;-71
2021/06/12 07:45:35;;;;;;;19.55;16.42;;;;;;;22.02;64.18;99115.28;3420951;28;20044;-71
2021/06/12 07:47:16;;;;;;;22.10;17.30;;;;;;;22.33;63.80;99104.97;3414693;29;20126;-70
2021/06/12 07:48:56;;;;;;;23.80;17.40;;;;;;;22.69;62.78;99117.38;3415461;28;20034;-71
2021/06/12 07:50:37;;;;;;;19.87;15.37;;;;;;;22.98;62.15;99109.19;3413859;28;20407;-72
2021/06/12 07:52:18;;;;;;;22.93;18.00;;;;;;;23.23;61.50;99108.03;3414390;29;20089;-71